sensor_id;sensor_type;location;lat;lon;timestamp;temperature;humidity
25568;DHT22;13455;51.480;7.594;2023-06-26T00:01:58;22.90;99.90
25568;DHT22;13455;51.480;7.594;2023-06-26T00:04:23;22.80;99.90
25568;DHT22;13455;51.480;7.594;2023-06-26T00:06:49;22.80;99.90
25568;DHT22;13455;51.480;7.594;2023-06-26T00:09:15;22.80;99.90
25568;DHT22;13455;51.480;7.594;2023-06-26T00:11:40;22.70;99.90
25568;DHT22;13455;51.480;7.594;2023-06-26T00:14:06;22.70;99.90
25568;DHT22;13455;51.480;7.594;2023-06-26T00:16:32;22.70;99.90
25568;DHT22;13455;51.480;7.594;2023-06-26T00:18:57;22.60;99.90
25568;DHT22;13455;51.480;7.594;2023-06-26T00:21:24;22.60;99.90
25568;DHT22;13455;51.480;7.594;2023-06-26T00:23:51;22.60;99.90
25568;DHT22;13455;51.480;7.594;2023-06-26T00:26:16;22.50;99.90
25568;DHT22;13455;51.480;7.594;2023-06-26T00:28:42;22.50;99.90
25568;DHT22;13455;51.480;7.594;2023-06-26T00:31:07;22.50;99.90
25568;DHT22;13455;51.480;7.594;2023-06-26T00:33:33;22.40;99.90
25568;DHT22;13455;51.480;7.594;2023-06-26T00:35:59;22.40;99.90
25568;DHT22;13455;51.480;7.594;2023-06-26T00:40:51;22.40;99.90
25568;DHT22;13455;51.480;7.594;2023-06-26T00:43:16;22.30;99.90
25568;DHT22;13455;51.480;7.594;2023-06-26T07:05:01;23.00;99.90
25568;DHT22;13455;51.480;7.594;2023-06-26T07:19:38;23.80;99.90
25568;DHT22;13455;51.480;7.594;2023-06-26T07:22:04;23.60;99.90
25568;DHT22;13455;51.480;7.594;2023-06-26T07:24:29;23.90;99.90
25568;DHT22;13455;51.480;7.594;2023-06-26T07:26:55;23.60;99.90
25568;DHT22;13455;51.480;7.594;2023-06-26T07:29:20;23.90;99.90
25568;DHT22;13455;51.480;7.594;2023-06-26T07:31:46;24.00;99.90
25568;DHT22;13455;51.480;7.594;2023-06-26T07:34:13;24.10;99.90
25568;DHT22;13455;51.480;7.594;2023-06-26T07:36:39;24.30;99.90
25568;DHT22;13455;51.480;7.594;2023-06-26T07:39:04;24.50;99.90
25568;DHT22;13455;51.480;7.594;2023-06-26T07:41:30;24.60;99.90
25568;DHT22;13455;51.480;7.594;2023-06-26T07:43:58;24.60;99.90
25568;DHT22;13455;51.480;7.594;2023-06-26T07:46:23;24.70;99.90
25568;DHT22;13455;51.480;7.594;2023-06-26T07:48:49;24.60;99.90
25568;DHT22;13455;51.480;7.594;2023-06-26T07:51:15;24.80;99.90
25568;DHT22;13455;51.480;7.594;2023-06-26T07:56:07;24.70;99.90
25568;DHT22;13455;51.480;7.594;2023-06-26T07:58:32;25.00;99.90
25568;DHT22;13455;51.480;7.594;2023-06-26T08:00:58;25.10;99.90
25568;DHT22;13455;51.480;7.594;2023-06-26T08:03:23;25.00;99.90
25568;DHT22;13455;51.480;7.594;2023-06-26T08:08:15;25.30;99.90
25568;DHT22;13455;51.480;7.594;2023-06-26T08:10:41;25.50;99.90
25568;DHT22;13455;51.480;7.594;2023-06-26T08:13:06;25.50;99.90
25568;DHT22;13455;51.480;7.594;2023-06-26T08:17:58;25.80;99.90
25568;DHT22;13455;51.480;7.594;2023-06-26T08:20:24;25.70;99.90
25568;DHT22;13455;51.480;7.594;2023-06-26T08:22:49;25.70;99.90
25568;DHT22;13455;51.480;7.594;2023-06-26T08:25:17;25.90;99.90
25568;DHT22;13455;51.480;7.594;2023-06-26T08:27:43;26.00;99.90
25568;DHT22;13455;51.480;7.594;2023-06-26T08:35:02;26.30;99.90
25568;DHT22;13455;51.480;7.594;2023-06-26T08:37:27;26.40;99.90
25568;DHT22;13455;51.480;7.594;2023-06-26T08:39:53;26.50;99.90
25568;DHT22;13455;51.480;7.594;2023-06-26T08:42:19;26.50;99.90
25568;DHT22;13455;51.480;7.594;2023-06-26T08:44:45;26.50;99.90
25568;DHT22;13455;51.480;7.594;2023-06-26T08:47:11;26.40;99.90
25568;DHT22;13455;51.480;7.594;2023-06-26T08:49:53;26.60;99.90
25568;DHT22;13455;51.480;7.594;2023-06-26T08:52:27;26.80;99.90
25568;DHT22;13455;51.480;7.594;2023-06-26T08:54:59;26.80;99.90
25568;DHT22;13455;51.480;7.594;2023-06-26T08:57:26;26.80;99.90
25568;DHT22;13455;51.480;7.594;2023-06-26T08:59:53;26.80;99.90
25568;DHT22;13455;51.480;7.594;2023-06-26T09:02:19;26.70;99.90
25568;DHT22;13455;51.480;7.594;2023-06-26T09:04:48;26.90;99.90
25568;DHT22;13455;51.480;7.594;2023-06-26T09:09:43;27.10;99.90
25568;DHT22;13455;51.480;7.594;2023-06-26T09:12:09;27.20;99.90
25568;DHT22;13455;51.480;7.594;2023-06-26T09:14:36;27.30;99.90
25568;DHT22;13455;51.480;7.594;2023-06-26T09:19:28;27.30;99.90
25568;DHT22;13455;51.480;7.594;2023-06-26T09:21:54;27.40;99.90
25568;DHT22;13455;51.480;7.594;2023-06-26T09:24:21;27.50;99.90
25568;DHT22;13455;51.480;7.594;2023-06-26T09:31:40;27.90;99.80
25568;DHT22;13455;51.480;7.594;2023-06-26T09:34:06;27.90;99.90
25568;DHT22;13455;51.480;7.594;2023-06-26T09:36:33;27.80;99.90
25568;DHT22;13455;51.480;7.594;2023-06-26T09:39:03;27.80;99.80
25568;DHT22;13455;51.480;7.594;2023-06-26T09:41:30;27.80;99.90
25568;DHT22;13455;51.480;7.594;2023-06-26T09:44:01;28.00;99.90
25568;DHT22;13455;51.480;7.594;2023-06-26T10:06:31;28.50;97.70
25568;DHT22;13455;51.480;7.594;2023-06-26T10:08:59;28.60;98.40
25568;DHT22;13455;51.480;7.594;2023-06-26T10:11:29;28.70;97.70
25568;DHT22;13455;51.480;7.594;2023-06-26T10:13:58;28.80;97.10
25568;DHT22;13455;51.480;7.594;2023-06-26T10:16:26;28.70;94.80
25568;DHT22;13455;51.480;7.594;2023-06-26T10:18:57;28.50;95.20
25568;DHT22;13455;51.480;7.594;2023-06-26T10:21:26;28.30;94.80
25568;DHT22;13455;51.480;7.594;2023-06-26T10:23:53;28.10;95.00
25568;DHT22;13455;51.480;7.594;2023-06-26T10:26:21;28.00;95.10
25568;DHT22;13455;51.480;7.594;2023-06-26T10:28:48;28.10;95.20
25568;DHT22;13455;51.480;7.594;2023-06-26T10:31:23;28.00;95.20
25568;DHT22;13455;51.480;7.594;2023-06-26T10:33:50;28.10;95.60
25568;DHT22;13455;51.480;7.594;2023-06-26T10:36:29;28.00;94.70
25568;DHT22;13455;51.480;7.594;2023-06-26T10:38:57;28.00;94.70
25568;DHT22;13455;51.480;7.594;2023-06-26T10:41:24;28.10;94.90
25568;DHT22;13455;51.480;7.594;2023-06-26T10:44:16;28.20;95.20
25568;DHT22;13455;51.480;7.594;2023-06-26T10:46:54;28.50;95.60
25568;DHT22;13455;51.480;7.594;2023-06-26T10:49:25;28.70;95.70
25568;DHT22;13455;51.480;7.594;2023-06-26T10:51:51;28.90;94.60
25568;DHT22;13455;51.480;7.594;2023-06-26T10:54:19;29.10;94.00
25568;DHT22;13455;51.480;7.594;2023-06-26T10:56:46;29.20;93.30
25568;DHT22;13455;51.480;7.594;2023-06-26T11:01:46;29.30;91.20
25568;DHT22;13455;51.480;7.594;2023-06-26T11:04:13;29.30;91.50
25568;DHT22;13455;51.480;7.594;2023-06-26T11:06:40;29.30;89.20
25568;DHT22;13455;51.480;7.594;2023-06-26T11:14:18;29.40;89.00
25568;DHT22;13455;51.480;7.594;2023-06-26T11:16:44;29.60;90.10
25568;DHT22;13455;51.480;7.594;2023-06-26T11:19:10;29.80;99.00
25568;DHT22;13455;51.480;7.594;2023-06-26T11:26:42;29.90;83.60
25568;DHT22;13455;51.480;7.594;2023-06-26T11:31:36;30.10;93.30
25568;DHT22;13455;51.480;7.594;2023-06-26T11:34:09;30.80;76.60
25568;DHT22;13455;51.480;7.594;2023-06-26T11:36:37;30.10;74.50
25568;DHT22;13455;51.480;7.594;2023-06-26T11:39:05;30.10;75.00
25568;DHT22;13455;51.480;7.594;2023-06-26T11:44:04;30.50;74.40
25568;DHT22;13455;51.480;7.594;2023-06-26T11:48:56;30.80;74.70
25568;DHT22;13455;51.480;7.594;2023-06-26T11:51:22;31.10;75.90
25568;DHT22;13455;51.480;7.594;2023-06-26T11:53:48;31.00;99.90
25568;DHT22;13455;51.480;7.594;2023-06-26T11:56:15;31.20;74.70
25568;DHT22;13455;51.480;7.594;2023-06-26T12:01:37;31.00;75.50
25568;DHT22;13455;51.480;7.594;2023-06-26T12:04:05;30.90;75.70
25568;DHT22;13455;51.480;7.594;2023-06-26T12:06:33;30.90;77.40
25568;DHT22;13455;51.480;7.594;2023-06-26T12:09:01;30.80;76.80
25568;DHT22;13455;51.480;7.594;2023-06-26T12:11:31;30.60;75.10
25568;DHT22;13455;51.480;7.594;2023-06-26T12:13:58;30.60;75.20
25568;DHT22;13455;51.480;7.594;2023-06-26T12:16:24;30.40;74.00
25568;DHT22;13455;51.480;7.594;2023-06-26T12:18:51;30.20;74.20
25568;DHT22;13455;51.480;7.594;2023-06-26T12:24:01;30.00;73.50
25568;DHT22;13455;51.480;7.594;2023-06-26T12:26:27;30.00;76.00
25568;DHT22;13455;51.480;7.594;2023-06-26T12:31:28;29.80;73.30
25568;DHT22;13455;51.480;7.594;2023-06-26T12:33:55;29.70;73.50
25568;DHT22;13455;51.480;7.594;2023-06-26T12:36:20;29.60;74.00
25568;DHT22;13455;51.480;7.594;2023-06-26T12:38:47;29.70;73.60
25568;DHT22;13455;51.480;7.594;2023-06-26T12:41:14;29.60;72.90
25568;DHT22;13455;51.480;7.594;2023-06-26T12:43:40;29.60;72.90
25568;DHT22;13455;51.480;7.594;2023-06-26T12:46:06;29.40;70.20
25568;DHT22;13455;51.480;7.594;2023-06-26T12:48:43;29.20;70.50
25568;DHT22;13455;51.480;7.594;2023-06-26T12:51:14;28.90;70.20
25568;DHT22;13455;51.480;7.594;2023-06-26T12:53:40;29.10;72.90
25568;DHT22;13455;51.480;7.594;2023-06-26T12:56:06;29.30;72.80
25568;DHT22;13455;51.480;7.594;2023-06-26T12:58:36;29.50;73.70
25568;DHT22;13455;51.480;7.594;2023-06-26T13:01:07;29.60;71.40
25568;DHT22;13455;51.480;7.594;2023-06-26T13:03:44;29.80;95.60
25568;DHT22;13455;51.480;7.594;2023-06-26T13:06:10;29.90;96.50
25568;DHT22;13455;51.480;7.594;2023-06-26T13:25:38;30.00;63.60
25568;DHT22;13455;51.480;7.594;2023-06-26T13:28:04;30.10;64.30
25568;DHT22;13455;51.480;7.594;2023-06-26T13:30:29;30.20;61.00
25568;DHT22;13455;51.480;7.594;2023-06-26T13:35:21;30.60;61.90
25568;DHT22;13455;51.480;7.594;2023-06-26T13:37:47;30.70;62.70
25568;DHT22;13455;51.480;7.594;2023-06-26T13:40:12;30.70;60.90
25568;DHT22;13455;51.480;7.594;2023-06-26T13:42:38;30.90;59.60
25568;DHT22;13455;51.480;7.594;2023-06-26T13:47:31;31.00;58.50
25568;DHT22;13455;51.480;7.594;2023-06-26T13:49:56;30.90;58.60
25568;DHT22;13455;51.480;7.594;2023-06-26T13:52:22;31.00;59.10
25568;DHT22;13455;51.480;7.594;2023-06-26T14:24:06;30.00;67.70
25568;DHT22;13455;51.480;7.594;2023-06-26T14:26:32;30.20;84.30
25568;DHT22;13455;51.480;7.594;2023-06-26T14:36:19;31.00;53.50
25568;DHT22;13455;51.480;7.594;2023-06-26T14:38:47;31.30;84.80
25568;DHT22;13455;51.480;7.594;2023-06-26T14:43:39;31.40;52.60
25568;DHT22;13455;51.480;7.594;2023-06-26T14:46:05;31.30;51.00
25568;DHT22;13455;51.480;7.594;2023-06-26T14:48:31;31.60;68.10
25568;DHT22;13455;51.480;7.594;2023-06-26T14:50:56;31.70;71.40
25568;DHT22;13455;51.480;7.594;2023-06-26T14:53:22;31.60;49.00
25568;DHT22;13455;51.480;7.594;2023-06-26T14:55:47;31.70;68.90
25568;DHT22;13455;51.480;7.594;2023-06-26T14:58:13;31.90;68.90
25568;DHT22;13455;51.480;7.594;2023-06-26T15:00:39;31.90;76.50
25568;DHT22;13455;51.480;7.594;2023-06-26T15:03:04;31.70;50.70
25568;DHT22;13455;51.480;7.594;2023-06-26T15:05:30;31.80;52.10
25568;DHT22;13455;51.480;7.594;2023-06-26T15:15:14;30.80;47.70
25568;DHT22;13455;51.480;7.594;2023-06-26T15:17:40;30.70;48.00
25568;DHT22;13455;51.480;7.594;2023-06-26T15:25:06;30.10;67.90
25568;DHT22;13455;51.480;7.594;2023-06-26T15:27:32;30.00;51.70
25568;DHT22;13455;51.480;7.594;2023-06-26T15:29:58;29.40;52.20
25568;DHT22;13455;51.480;7.594;2023-06-26T15:32:23;29.80;52.40
25568;DHT22;13455;51.480;7.594;2023-06-26T15:37:15;30.00;91.90
25568;DHT22;13455;51.480;7.594;2023-06-26T15:39:42;29.80;55.70
25568;DHT22;13455;51.480;7.594;2023-06-26T15:51:52;30.50;70.30
25568;DHT22;13455;51.480;7.594;2023-06-26T15:54:18;30.20;54.70
25568;DHT22;13455;51.480;7.594;2023-06-26T15:56:43;30.10;54.60
25568;DHT22;13455;51.480;7.594;2023-06-26T15:59:09;30.00;55.00
25568;DHT22;13455;51.480;7.594;2023-06-26T16:01:35;30.10;54.50
25568;DHT22;13455;51.480;7.594;2023-06-26T16:16:12;29.00;54.80
25568;DHT22;13455;51.480;7.594;2023-06-26T16:21:04;28.30;78.00
25568;DHT22;13455;51.480;7.594;2023-06-26T16:25:57;27.90;56.00
25568;DHT22;13455;51.480;7.594;2023-06-26T16:30:51;27.70;95.10
25568;DHT22;13455;51.480;7.594;2023-06-26T16:35:43;27.40;96.10
25568;DHT22;13455;51.480;7.594;2023-06-26T16:38:08;26.50;59.60
25568;DHT22;13455;51.480;7.594;2023-06-26T16:45:29;26.70;58.60
25568;DHT22;13455;51.480;7.594;2023-06-26T16:47:55;26.70;58.90
25568;DHT22;13455;51.480;7.594;2023-06-26T16:50:20;26.60;58.90
25568;DHT22;13455;51.480;7.594;2023-06-26T16:52:46;26.50;58.60
25568;DHT22;13455;51.480;7.594;2023-06-26T16:55:12;26.20;57.90
25568;DHT22;13455;51.480;7.594;2023-06-26T16:57:37;26.20;58.70
25568;DHT22;13455;51.480;7.594;2023-06-26T17:00:04;25.90;58.90
25568;DHT22;13455;51.480;7.594;2023-06-26T17:02:30;25.90;59.50
25568;DHT22;13455;51.480;7.594;2023-06-26T17:04:57;25.90;74.30
25568;DHT22;13455;51.480;7.594;2023-06-26T17:07:22;26.00;68.70
25568;DHT22;13455;51.480;7.594;2023-06-26T17:09:48;25.70;75.60
25568;DHT22;13455;51.480;7.594;2023-06-26T17:12:14;25.60;59.80
25568;DHT22;13455;51.480;7.594;2023-06-26T17:17:08;24.60;59.90
25568;DHT22;13455;51.480;7.594;2023-06-26T17:19:34;24.90;60.10
25568;DHT22;13455;51.480;7.594;2023-06-26T17:22:03;24.90;60.30
25568;DHT22;13455;51.480;7.594;2023-06-26T17:24:29;24.90;61.90
25568;DHT22;13455;51.480;7.594;2023-06-26T17:27:10;24.60;61.40
25568;DHT22;13455;51.480;7.594;2023-06-26T17:29:37;24.50;61.40
25568;DHT22;13455;51.480;7.594;2023-06-26T17:34:30;24.40;96.70
25568;DHT22;13455;51.480;7.594;2023-06-26T17:36:56;24.00;85.10
25568;DHT22;13455;51.480;7.594;2023-06-26T17:39:21;24.30;78.80
25568;DHT22;13455;51.480;7.594;2023-06-26T17:41:47;24.20;83.70
25568;DHT22;13455;51.480;7.594;2023-06-26T17:44:12;23.90;79.00
25568;DHT22;13455;51.480;7.594;2023-06-26T17:46:38;23.70;79.30
25568;DHT22;13455;51.480;7.594;2023-06-26T17:49:04;23.90;79.70
25568;DHT22;13455;51.480;7.594;2023-06-26T17:51:30;24.10;79.90
25568;DHT22;13455;51.480;7.594;2023-06-26T17:56:21;23.80;61.50
25568;DHT22;13455;51.480;7.594;2023-06-26T17:58:47;23.90;62.60
25568;DHT22;13455;51.480;7.594;2023-06-26T18:03:39;23.80;64.00
25568;DHT22;13455;51.480;7.594;2023-06-26T18:06:04;23.80;64.50
25568;DHT22;13455;51.480;7.594;2023-06-26T18:08:30;23.80;64.20
25568;DHT22;13455;51.480;7.594;2023-06-26T18:10:56;23.70;64.00
25568;DHT22;13455;51.480;7.594;2023-06-26T18:13:22;23.70;65.30
25568;DHT22;13455;51.480;7.594;2023-06-26T18:15:48;23.80;64.00
25568;DHT22;13455;51.480;7.594;2023-06-26T18:18:13;23.70;63.40
25568;DHT22;13455;51.480;7.594;2023-06-26T18:20:40;23.60;63.00
25568;DHT22;13455;51.480;7.594;2023-06-26T18:23:05;23.50;63.40
25568;DHT22;13455;51.480;7.594;2023-06-26T18:25:31;23.50;63.50
25568;DHT22;13455;51.480;7.594;2023-06-26T18:27:57;23.40;64.30
25568;DHT22;13455;51.480;7.594;2023-06-26T18:30:22;23.40;63.70
25568;DHT22;13455;51.480;7.594;2023-06-26T18:32:48;23.30;63.80
25568;DHT22;13455;51.480;7.594;2023-06-26T18:35:16;23.20;63.30
25568;DHT22;13455;51.480;7.594;2023-06-26T18:37:41;23.30;64.00
25568;DHT22;13455;51.480;7.594;2023-06-26T18:40:07;23.30;63.40
25568;DHT22;13455;51.480;7.594;2023-06-26T18:42:41;23.10;63.10
25568;DHT22;13455;51.480;7.594;2023-06-26T18:47:33;23.10;63.10
25568;DHT22;13455;51.480;7.594;2023-06-26T18:49:59;23.00;63.20
25568;DHT22;13455;51.480;7.594;2023-06-26T18:52:25;23.00;63.70
25568;DHT22;13455;51.480;7.594;2023-06-26T18:54:50;22.90;63.20
25568;DHT22;13455;51.480;7.594;2023-06-26T18:57:16;22.80;63.90
25568;DHT22;13455;51.480;7.594;2023-06-26T18:59:42;22.80;64.30
25568;DHT22;13455;51.480;7.594;2023-06-26T19:02:07;22.80;64.50
25568;DHT22;13455;51.480;7.594;2023-06-26T19:04:33;22.70;63.20
25568;DHT22;13455;51.480;7.594;2023-06-26T19:06:58;22.60;62.40
25568;DHT22;13455;51.480;7.594;2023-06-26T19:09:24;22.50;62.60
25568;DHT22;13455;51.480;7.594;2023-06-26T19:11:52;22.40;62.50
25568;DHT22;13455;51.480;7.594;2023-06-26T19:14:18;22.40;62.90
25568;DHT22;13455;51.480;7.594;2023-06-26T19:19:09;22.20;62.80
25568;DHT22;13455;51.480;7.594;2023-06-26T19:21:35;22.10;63.70
25568;DHT22;13455;51.480;7.594;2023-06-26T19:28:53;21.90;64.70
25568;DHT22;13455;51.480;7.594;2023-06-26T19:31:18;21.80;65.70
25568;DHT22;13455;51.480;7.594;2023-06-26T19:33:44;21.70;66.10
25568;DHT22;13455;51.480;7.594;2023-06-26T19:36:11;21.60;66.70
25568;DHT22;13455;51.480;7.594;2023-06-26T19:41:03;21.50;67.70
25568;DHT22;13455;51.480;7.594;2023-06-26T19:45:55;21.50;69.30
25568;DHT22;13455;51.480;7.594;2023-06-26T19:48:21;21.30;70.40
25568;DHT22;13455;51.480;7.594;2023-06-26T19:55:38;21.10;90.30
25568;DHT22;13455;51.480;7.594;2023-06-26T20:00:30;20.90;72.30
25568;DHT22;13455;51.480;7.594;2023-06-26T20:02:56;21.20;74.40
25568;DHT22;13455;51.480;7.594;2023-06-26T20:05:22;20.80;73.80
25568;DHT22;13455;51.480;7.594;2023-06-26T20:07:48;20.80;74.50
25568;DHT22;13455;51.480;7.594;2023-06-26T20:10:13;20.60;74.50
25568;DHT22;13455;51.480;7.594;2023-06-26T20:12:39;20.60;76.30
25568;DHT22;13455;51.480;7.594;2023-06-26T20:15:05;20.40;76.40
25568;DHT22;13455;51.480;7.594;2023-06-26T20:19:57;20.40;77.60
25568;DHT22;13455;51.480;7.594;2023-06-26T20:22:23;20.40;78.20
25568;DHT22;13455;51.480;7.594;2023-06-26T20:24:49;20.30;78.20
25568;DHT22;13455;51.480;7.594;2023-06-26T20:27:14;20.30;95.80
25568;DHT22;13455;51.480;7.594;2023-06-26T20:29:40;20.10;78.50
25568;DHT22;13455;51.480;7.594;2023-06-26T20:39:24;20.10;94.00
25568;DHT22;13455;51.480;7.594;2023-06-26T20:41:52;20.00;80.70
25568;DHT22;13455;51.480;7.594;2023-06-26T20:44:18;19.70;81.30
25568;DHT22;13455;51.480;7.594;2023-06-26T20:46:44;19.70;81.90
25568;DHT22;13455;51.480;7.594;2023-06-26T20:49:10;19.40;98.20
25568;DHT22;13455;51.480;7.594;2023-06-26T20:51:37;19.50;82.00
25568;DHT22;13455;51.480;7.594;2023-06-26T20:54:03;19.50;87.90
25568;DHT22;13455;51.480;7.594;2023-06-26T20:58:56;19.20;99.90
25568;DHT22;13455;51.480;7.594;2023-06-26T21:01:21;19.40;99.90
25568;DHT22;13455;51.480;7.594;2023-06-26T21:03:47;19.50;90.90
25568;DHT22;13455;51.480;7.594;2023-06-26T21:06:13;19.20;85.70
25568;DHT22;13455;51.480;7.594;2023-06-26T21:08:39;19.00;86.20
25568;DHT22;13455;51.480;7.594;2023-06-26T21:11:04;19.00;87.30
25568;DHT22;13455;51.480;7.594;2023-06-26T21:13:30;18.90;87.30
25568;DHT22;13455;51.480;7.594;2023-06-26T21:18:21;18.90;87.80
25568;DHT22;13455;51.480;7.594;2023-06-26T21:25:39;18.70;89.30
25568;DHT22;13455;51.480;7.594;2023-06-26T21:28:04;18.60;89.80
25568;DHT22;13455;51.480;7.594;2023-06-26T21:30:30;18.60;90.20
25568;DHT22;13455;51.480;7.594;2023-06-26T21:32:56;18.60;90.50
25568;DHT22;13455;51.480;7.594;2023-06-26T21:35:22;18.60;90.90
25568;DHT22;13455;51.480;7.594;2023-06-26T21:42:40;18.40;91.50
25568;DHT22;13455;51.480;7.594;2023-06-26T21:45:06;18.50;92.00
25568;DHT22;13455;51.480;7.594;2023-06-26T21:47:31;18.40;97.00
25568;DHT22;13455;51.480;7.594;2023-06-26T22:43:29;17.50;97.80
25568;DHT22;13455;51.480;7.594;2023-06-26T22:50:47;17.80;99.90
25568;DHT22;13455;51.480;7.594;2023-06-26T22:53:13;17.20;99.70
25568;DHT22;13455;51.480;7.594;2023-06-26T22:55:44;17.30;99.90
25568;DHT22;13455;51.480;7.594;2023-06-26T22:58:10;17.10;99.90
25568;DHT22;13455;51.480;7.594;2023-06-26T23:00:36;17.60;99.90
25568;DHT22;13455;51.480;7.594;2023-06-26T23:03:03;17.00;99.90
25568;DHT22;13455;51.480;7.594;2023-06-26T23:07:56;16.90;99.90
25568;DHT22;13455;51.480;7.594;2023-06-26T23:10:23;16.90;99.90
25568;DHT22;13455;51.480;7.594;2023-06-26T23:15:15;16.80;99.90
25568;DHT22;13455;51.480;7.594;2023-06-26T23:17:41;17.10;99.90
25568;DHT22;13455;51.480;7.594;2023-06-26T23:20:08;16.70;99.90
25568;DHT22;13455;51.480;7.594;2023-06-26T23:22:34;16.70;99.90
25568;DHT22;13455;51.480;7.594;2023-06-26T23:25:03;16.60;99.90
25568;DHT22;13455;51.480;7.594;2023-06-26T23:27:29;16.50;99.90
25568;DHT22;13455;51.480;7.594;2023-06-26T23:29:55;16.40;99.90
25568;DHT22;13455;51.480;7.594;2023-06-26T23:32:21;16.50;99.90
25568;DHT22;13455;51.480;7.594;2023-06-26T23:34:47;16.50;99.90
25568;DHT22;13455;51.480;7.594;2023-06-26T23:37:12;16.70;99.90
25568;DHT22;13455;51.480;7.594;2023-06-26T23:42:06;16.40;99.90
25568;DHT22;13455;51.480;7.594;2023-06-26T23:44:32;16.30;99.90
25568;DHT22;13455;51.480;7.594;2023-06-26T23:47:00;16.30;99.90
25568;DHT22;13455;51.480;7.594;2023-06-26T23:49:32;16.30;99.90
25568;DHT22;13455;51.480;7.594;2023-06-26T23:51:58;16.20;99.90
25568;DHT22;13455;51.480;7.594;2023-06-26T23:54:24;16.20;99.90
